createdAt,value
2018-08-25T00:01:19.727Z,21.76
2018-08-25T00:03:50.445Z,21.55
2018-08-25T00:06:20.468Z,21.68
2018-08-25T00:08:51.336Z,21.63
2018-08-25T00:11:22.152Z,21.79
2018-08-25T00:13:52.779Z,21.83
2018-08-25T00:16:23.555Z,21.71
2018-08-25T00:18:54.266Z,21.48
2018-08-25T00:21:24.820Z,21.27
2018-08-25T00:23:55.794Z,21.03
2018-08-25T00:26:27.245Z,21.30
2018-08-25T00:28:58.158Z,21.45
2018-08-25T00:31:28.747Z,21.48
2018-08-25T00:33:59.001Z,21.35
2018-08-25T00:36:29.710Z,21.23
2018-08-25T00:39:00.711Z,21.04
2018-08-25T00:41:31.281Z,21.08
2018-08-25T00:44:01.797Z,21.05
2018-08-25T00:46:32.269Z,20.99
2018-08-25T00:49:02.690Z,21.08
2018-08-25T00:51:33.381Z,21.20
2018-08-25T00:54:03.764Z,21.28
2018-08-25T00:56:35.138Z,21.23
2018-08-25T00:59:05.696Z,21.21
2018-08-25T01:01:36.634Z,21.15
2018-08-25T01:04:07.048Z,21.03
2018-08-25T01:06:37.741Z,20.96
2018-08-25T01:09:09.817Z,20.76
2018-08-25T01:11:40.754Z,20.64
2018-08-25T01:14:11.585Z,20.89
2018-08-25T01:16:42.544Z,20.89
2018-08-25T01:19:13.324Z,20.88
2018-08-25T01:21:44.040Z,20.74
2018-08-25T01:24:14.132Z,20.71
2018-08-25T01:26:44.742Z,20.62
2018-08-25T01:29:15.550Z,20.69
2018-08-25T01:31:46.215Z,20.54
2018-08-25T01:34:16.955Z,20.50
2018-08-25T01:36:47.802Z,20.39
2018-08-25T01:39:18.558Z,20.23
2018-08-25T01:41:49.620Z,19.99
2018-08-25T01:44:20.802Z,20.09
2018-08-25T01:46:51.531Z,20.24
2018-08-25T01:49:22.179Z,20.20
2018-08-25T01:51:52.352Z,20.10
2018-08-25T01:54:22.969Z,19.79
2018-08-25T01:56:53.659Z,19.68
2018-08-25T01:59:24.617Z,19.71
2018-08-25T02:01:55.295Z,19.58
2018-08-25T02:04:26.104Z,19.72
2018-08-25T02:06:57.210Z,19.68
2018-08-25T02:09:28.250Z,19.71
2018-08-25T02:11:59.053Z,19.80
2018-08-25T02:14:30.186Z,19.94
2018-08-25T02:17:00.847Z,20.04
2018-08-25T02:19:31.653Z,20.19
2018-08-25T02:22:03.205Z,20.23
2018-08-25T02:24:34.346Z,20.26
2018-08-25T02:27:05.759Z,20.19
2018-08-25T02:29:37.000Z,19.96
2018-08-25T02:32:08.240Z,19.96
2018-08-25T02:34:39.008Z,20.02
2018-08-25T02:37:09.915Z,20.10
2018-08-25T02:39:40.753Z,20.15
2018-08-25T02:42:11.698Z,20.17
2018-08-25T02:44:42.662Z,20.15
2018-08-25T02:47:13.309Z,20.00
2018-08-25T02:49:44.221Z,19.87
2018-08-25T02:52:15.909Z,19.78
2018-08-25T02:54:46.320Z,19.72
2018-08-25T02:57:16.386Z,19.72
2018-08-25T02:59:47.273Z,19.72
2018-08-25T03:02:18.268Z,19.74
2018-08-25T03:04:49.364Z,19.77
2018-08-25T03:07:20.052Z,19.69
2018-08-25T03:09:51.219Z,19.76
2018-08-25T03:12:21.915Z,19.73
2018-08-25T03:14:52.366Z,19.58
2018-08-25T03:17:23.273Z,19.52
2018-08-25T03:19:53.359Z,19.38
2018-08-25T03:22:24.662Z,19.36
2018-08-25T03:24:56.138Z,19.19
2018-08-25T03:27:26.867Z,19.32
2018-08-25T03:29:57.544Z,19.47
2018-08-25T03:32:28.455Z,19.45
2018-08-25T03:34:59.327Z,19.35
2018-08-25T03:37:30.311Z,19.42
2018-08-25T03:40:00.090Z,19.43
2018-08-25T03:42:29.919Z,19.43
2018-08-25T03:44:59.843Z,19.33
2018-08-25T03:47:29.651Z,19.28
2018-08-25T03:49:59.574Z,19.36
2018-08-25T03:52:29.455Z,19.23
2018-08-25T03:54:59.359Z,19.03
2018-08-25T03:57:29.196Z,18.94
2018-08-25T03:59:59.029Z,18.84
2018-08-25T04:02:28.790Z,19.04
2018-08-25T04:04:58.655Z,19.22
2018-08-25T04:07:28.491Z,19.19
2018-08-25T04:09:58.409Z,19.46
2018-08-25T04:12:28.350Z,19.59
2018-08-25T04:14:59.088Z,19.55
2018-08-25T04:17:28.842Z,19.61
2018-08-25T04:19:58.695Z,19.64
2018-08-25T04:22:28.371Z,19.77
2018-08-25T04:24:58.186Z,20.00
2018-08-25T04:27:28.005Z,20.00
2018-08-25T04:29:58.067Z,20.04
2018-08-25T04:32:27.941Z,20.09
2018-08-25T04:34:57.853Z,20.14
2018-08-25T04:37:27.833Z,20.27
2018-08-25T04:39:57.625Z,20.34
2018-08-25T04:42:27.452Z,20.51
2018-08-25T04:44:57.274Z,20.41
2018-08-25T04:47:27.159Z,20.38
2018-08-25T04:49:57.061Z,20.40
2018-08-25T04:52:27.103Z,20.44
2018-08-25T04:54:57.042Z,20.51
2018-08-25T04:57:27.227Z,20.62
2018-08-25T04:59:56.991Z,20.77
2018-08-25T05:02:26.751Z,20.89
2018-08-25T05:04:56.556Z,20.99
2018-08-25T05:07:26.424Z,21.14
2018-08-25T05:09:56.202Z,21.16
2018-08-25T05:12:25.983Z,21.24
2018-08-25T05:14:55.802Z,21.33
2018-08-25T05:17:25.635Z,21.54
2018-08-25T05:19:55.387Z,21.76
2018-08-25T05:22:25.165Z,21.94
2018-08-25T05:24:54.954Z,22.30
2018-08-25T05:27:24.864Z,22.57
2018-08-25T05:29:54.672Z,22.71
2018-08-25T05:32:24.604Z,22.82
2018-08-25T05:34:54.626Z,22.71
2018-08-25T05:37:24.483Z,22.67
2018-08-25T05:39:54.720Z,22.75
2018-08-25T05:42:25.459Z,22.92
2018-08-25T05:44:55.317Z,22.97
2018-08-25T05:47:25.181Z,23.17
2018-08-25T05:49:55.040Z,23.26
2018-08-25T05:52:25.096Z,23.48
2018-08-25T05:54:55.323Z,23.35
2018-08-25T05:57:25.159Z,23.37
2018-08-25T05:59:54.951Z,23.36
2018-08-25T06:02:24.826Z,23.51
2018-08-25T06:04:54.770Z,23.63
2018-08-25T06:07:24.584Z,23.75
2018-08-25T06:09:54.475Z,23.92
2018-08-25T06:12:24.334Z,24.12
2018-08-25T06:14:54.174Z,24.37
2018-08-25T06:17:24.199Z,24.59
2018-08-25T06:19:54.187Z,25.14
2018-08-25T06:22:24.084Z,25.70
2018-08-25T06:24:54.041Z,25.95
2018-08-25T06:27:23.908Z,25.94
2018-08-25T06:29:53.741Z,25.82
2018-08-25T06:32:23.585Z,25.96
2018-08-25T06:34:53.525Z,26.09
2018-08-25T06:37:23.524Z,26.06
2018-08-25T06:39:53.308Z,26.31
2018-08-25T06:42:23.768Z,26.30
2018-08-25T06:44:54.110Z,26.29
2018-08-25T06:47:23.929Z,26.29
2018-08-25T06:49:53.695Z,26.46
2018-08-25T06:52:24.123Z,27.04
2018-08-25T06:54:54.126Z,26.98
2018-08-25T06:57:23.928Z,26.89
2018-08-25T06:59:53.857Z,27.00
2018-08-25T07:02:24.051Z,27.01
2018-08-25T07:04:54.521Z,27.15
2018-08-25T07:07:24.328Z,27.31
2018-08-25T07:09:54.093Z,27.26
2018-08-25T07:12:24.411Z,27.41
2018-08-25T07:14:54.777Z,27.79
2018-08-25T07:17:25.442Z,27.70
2018-08-25T07:19:55.642Z,27.71
2018-08-25T07:22:25.644Z,28.14
2018-08-25T07:24:55.935Z,28.62
2018-08-25T07:27:25.695Z,28.94
2018-08-25T07:29:55.436Z,28.80
2018-08-25T07:32:25.524Z,28.83
2018-08-25T07:34:55.595Z,28.90
2018-08-25T07:37:25.371Z,28.85
2018-08-25T07:39:55.362Z,28.97
2018-08-25T07:42:25.276Z,29.11
2018-08-25T07:44:55.347Z,29.16
2018-08-25T07:47:25.155Z,28.97
2018-08-25T07:49:55.174Z,29.15
2018-08-25T07:52:25.219Z,28.78
2018-08-25T07:54:55.148Z,28.94
2018-08-25T07:57:25.125Z,29.41
2018-08-25T07:59:54.984Z,29.97
2018-08-25T08:02:24.959Z,30.49
2018-08-25T08:04:55.169Z,30.54
2018-08-25T08:07:24.958Z,30.45
2018-08-25T08:09:54.677Z,30.11
2018-08-25T08:12:24.706Z,30.43
2018-08-25T08:14:54.740Z,30.21
2018-08-25T08:17:24.766Z,30.66
2018-08-25T08:19:54.647Z,30.28
2018-08-25T08:22:24.618Z,30.51
2018-08-25T08:24:54.909Z,30.92
2018-08-25T08:27:24.657Z,30.96
2018-08-25T08:29:54.428Z,30.14
2018-08-25T08:32:24.568Z,30.43
2018-08-25T08:34:54.554Z,31.45
2018-08-25T08:37:24.340Z,32.21
2018-08-25T08:39:54.314Z,32.42
2018-08-25T08:42:24.359Z,32.36
2018-08-25T08:44:54.504Z,32.21
2018-08-25T08:47:24.280Z,31.81
2018-08-25T08:49:54.068Z,31.90
2018-08-25T08:52:24.286Z,32.07
2018-08-25T08:54:54.289Z,31.91
2018-08-25T08:57:24.317Z,32.49
2018-08-25T08:59:54.207Z,32.84
2018-08-25T09:02:24.838Z,32.08
2018-08-25T09:04:55.111Z,31.70
2018-08-25T09:07:24.892Z,32.16
2018-08-25T09:09:54.699Z,32.35
2018-08-25T09:12:24.590Z,33.28
2018-08-25T09:14:55.002Z,33.29
2018-08-25T09:17:25.237Z,33.71
2018-08-25T09:19:55.168Z,34.30
2018-08-25T09:22:25.084Z,34.20
2018-08-25T09:24:55.114Z,33.64
2018-08-25T09:27:24.907Z,32.84
2018-08-25T09:29:54.696Z,33.50
2018-08-25T09:32:24.635Z,34.10
2018-08-25T09:34:54.692Z,34.36
2018-08-25T09:37:24.567Z,34.13
2018-08-25T09:39:54.484Z,34.24
2018-08-25T09:42:24.319Z,34.95
2018-08-25T09:44:54.343Z,34.67
2018-08-25T09:47:24.106Z,34.41
2018-08-25T09:49:53.826Z,34.34
2018-08-25T09:52:23.741Z,34.65
2018-08-25T09:54:53.881Z,34.70
2018-08-25T09:57:23.971Z,34.63
2018-08-25T09:59:53.916Z,34.01
2018-08-25T10:02:23.898Z,33.94
2018-08-25T10:04:53.729Z,34.57
2018-08-25T10:07:23.596Z,34.85
2018-08-25T10:09:53.486Z,34.15
2018-08-25T10:12:23.546Z,34.04
2018-08-25T10:14:53.504Z,34.66
2018-08-25T10:17:23.700Z,35.22
2018-08-25T10:19:54.165Z,35.86
2018-08-25T10:22:24.280Z,36.54
2018-08-25T10:24:54.306Z,37.03
2018-08-25T10:27:24.192Z,37.23
2018-08-25T10:29:54.026Z,37.05
2018-08-25T10:32:23.935Z,36.99
2018-08-25T10:34:54.054Z,36.44
2018-08-25T10:37:23.858Z,37.11
2018-08-25T10:39:53.759Z,36.90
2018-08-25T10:42:23.603Z,36.88
2018-08-25T10:44:53.521Z,37.18
2018-08-25T10:47:23.326Z,36.68
2018-08-25T10:49:53.218Z,36.83
2018-08-25T10:52:23.346Z,36.68
2018-08-25T10:54:53.273Z,36.80
2018-08-25T10:57:23.136Z,36.99
2018-08-25T10:59:53.051Z,36.53
2018-08-25T11:02:27.715Z,36.85
2018-08-25T11:04:57.685Z,36.96
2018-08-25T11:07:27.598Z,36.27
2018-08-25T11:09:57.514Z,36.81
2018-08-25T11:12:27.324Z,36.38
2018-08-25T11:14:57.449Z,36.71
2018-08-25T11:17:27.317Z,37.47
2018-08-25T11:19:57.262Z,37.57
2018-08-25T11:22:27.154Z,37.70
2018-08-25T11:24:57.180Z,38.14
2018-08-25T11:27:26.933Z,37.79
2018-08-25T11:29:56.766Z,37.70
2018-08-25T11:32:26.570Z,37.61
2018-08-25T11:34:56.569Z,37.97
2018-08-25T11:37:26.644Z,38.31
2018-08-25T11:39:56.954Z,38.36
2018-08-25T11:42:27.023Z,38.85
2018-08-25T11:44:57.030Z,38.43
2018-08-25T11:47:26.828Z,37.75
2018-08-25T11:49:56.680Z,37.27
2018-08-25T11:52:26.693Z,37.61
2018-08-25T11:54:56.770Z,37.96
2018-08-25T11:57:26.962Z,37.95
2018-08-25T11:59:56.996Z,38.24
2018-08-25T12:02:27.802Z,37.93
2018-08-25T12:04:57.315Z,37.24
2018-08-25T12:07:27.146Z,36.81
2018-08-25T12:09:57.494Z,36.93
2018-08-25T12:12:27.724Z,37.15
2018-08-25T12:14:58.055Z,37.79
2018-08-25T12:17:28.347Z,37.85
2018-08-25T12:19:58.541Z,37.34
2018-08-25T12:22:28.785Z,37.82
2018-08-25T12:24:58.881Z,38.33
2018-08-25T12:27:28.790Z,39.07
2018-08-25T12:29:58.556Z,38.78
2018-08-25T12:32:28.595Z,38.07
2018-08-25T12:34:58.797Z,37.84
2018-08-25T12:37:28.625Z,37.79
2018-08-25T12:39:58.746Z,38.34
2018-08-25T12:42:28.918Z,38.98
2018-08-25T12:44:59.173Z,38.99
2018-08-25T12:47:29.091Z,39.42
2018-08-25T12:49:59.068Z,38.88
2018-08-25T12:52:29.264Z,38.29
2018-08-25T12:54:59.154Z,37.98
2018-08-25T12:57:29.268Z,37.50
2018-08-25T12:59:59.317Z,37.26
2018-08-25T13:02:29.405Z,38.30
2018-08-25T13:04:59.498Z,39.11
2018-08-25T13:07:29.447Z,39.09
2018-08-25T13:09:59.710Z,39.05
2018-08-25T13:12:29.796Z,37.93
2018-08-25T13:14:59.983Z,38.26
2018-08-25T13:17:29.951Z,38.53
2018-08-25T13:20:00.015Z,38.74
2018-08-25T13:22:30.168Z,39.09
2018-08-25T13:25:00.277Z,38.82
2018-08-25T13:27:30.029Z,39.47
2018-08-25T13:29:59.766Z,38.54
2018-08-25T13:32:29.869Z,37.99
2018-08-25T13:34:59.893Z,38.13
2018-08-25T13:37:29.670Z,37.91
2018-08-25T13:39:59.958Z,37.97
2018-08-25T13:42:29.912Z,38.21
2018-08-25T13:45:00.128Z,38.42
2018-08-25T13:47:29.900Z,38.29
2018-08-25T13:49:59.669Z,38.46
2018-08-25T13:52:29.797Z,38.45
2018-08-25T13:54:59.763Z,38.57
2018-08-25T13:57:29.614Z,38.16
2018-08-25T13:59:59.720Z,38.31
2018-08-25T14:02:29.628Z,38.31
2018-08-25T14:04:59.638Z,38.70
2018-08-25T14:07:29.720Z,38.57
2018-08-25T14:09:59.874Z,38.42
2018-08-25T14:12:29.979Z,37.83
2018-08-25T14:14:59.984Z,37.06
2018-08-25T14:17:29.965Z,37.08
2018-08-25T14:19:59.768Z,37.86
2018-08-25T14:22:29.620Z,38.17
2018-08-25T14:25:00.019Z,38.56
2018-08-25T14:27:30.028Z,38.71
2018-08-25T14:29:59.793Z,38.79
2018-08-25T14:32:29.717Z,38.82
2018-08-25T14:34:59.811Z,38.97
2018-08-25T14:37:29.783Z,38.77
2018-08-25T14:39:59.979Z,38.55
2018-08-25T14:42:30.044Z,37.85
2018-08-25T14:44:59.942Z,38.23
2018-08-25T14:47:29.872Z,38.12
2018-08-25T14:49:59.629Z,38.01
2018-08-25T14:52:29.624Z,37.94
2018-08-25T14:54:59.577Z,37.84
2018-08-25T14:57:29.763Z,38.00
2018-08-25T14:59:59.777Z,37.67
2018-08-25T15:02:29.804Z,37.71
2018-08-25T15:04:59.797Z,37.71
2018-08-25T15:07:29.583Z,37.43
2018-08-25T15:10:00.715Z,36.97
2018-08-25T15:12:31.087Z,37.43
2018-08-25T15:15:01.059Z,37.25
2018-08-25T15:17:31.048Z,36.91
2018-08-25T15:20:01.117Z,36.98
2018-08-25T15:22:31.144Z,36.70
2018-08-25T15:25:01.061Z,36.48
2018-08-25T15:27:30.864Z,36.21
2018-08-25T15:30:00.625Z,36.09
2018-08-25T15:32:30.635Z,36.06
2018-08-25T15:35:00.542Z,35.94
2018-08-25T15:37:30.339Z,35.95
2018-08-25T15:40:00.120Z,35.42
2018-08-25T15:42:30.233Z,35.64
2018-08-25T15:45:00.465Z,35.65
2018-08-25T15:47:30.219Z,35.17
2018-08-25T15:49:59.971Z,34.61
2018-08-25T15:52:30.040Z,34.41
2018-08-25T15:55:00.030Z,34.09
2018-08-25T15:57:30.040Z,33.89
2018-08-25T16:00:00.122Z,33.67
2018-08-25T16:02:30.128Z,33.50
2018-08-25T16:05:00.014Z,33.14
2018-08-25T16:07:29.921Z,32.75
2018-08-25T16:09:59.932Z,32.74
2018-08-25T16:12:29.944Z,32.50
2018-08-25T16:14:59.856Z,32.32
2018-08-25T16:17:30.302Z,32.10
2018-08-25T16:20:00.649Z,31.85
2018-08-25T16:22:30.530Z,31.55
2018-08-25T16:25:00.385Z,31.17
2018-08-25T16:27:30.158Z,30.72
2018-08-25T16:30:00.029Z,30.47
2018-08-25T16:32:29.909Z,30.33
2018-08-25T16:34:59.922Z,30.09
2018-08-25T16:37:29.697Z,29.98
2018-08-25T16:39:59.683Z,29.62
2018-08-25T16:42:29.602Z,29.32
2018-08-25T16:45:00.672Z,29.14
2018-08-25T16:47:31.649Z,28.88
2018-08-25T16:50:03.175Z,28.67
2018-08-25T16:52:33.987Z,28.64
2018-08-25T16:55:04.826Z,28.60
2018-08-25T16:57:35.604Z,28.62
2018-08-25T17:00:06.535Z,28.51
2018-08-25T17:02:37.559Z,28.52
2018-08-25T17:05:08.333Z,28.37
2018-08-25T17:07:39.035Z,28.27
2018-08-25T17:10:09.686Z,28.17
2018-08-25T17:12:40.439Z,28.09
2018-08-25T17:15:11.177Z,27.86
2018-08-25T17:17:42.417Z,27.47
2018-08-25T17:20:13.386Z,27.21
2018-08-25T17:22:44.134Z,26.87
2018-08-25T17:25:15.086Z,27.00
2018-08-25T17:27:45.927Z,27.08
2018-08-25T17:30:15.970Z,27.02
2018-08-25T17:32:45.868Z,27.02
2018-08-25T17:35:15.879Z,27.22
2018-08-25T17:37:45.939Z,27.28
2018-08-25T17:40:15.910Z,27.24
2018-08-25T17:42:45.925Z,27.19
2018-08-25T17:45:15.943Z,26.94
2018-08-25T17:47:45.731Z,26.81
2018-08-25T17:50:15.668Z,26.66
2018-08-25T17:52:45.627Z,26.56
2018-08-25T17:55:15.664Z,26.41
2018-08-25T17:57:45.733Z,26.29
2018-08-25T18:00:16.247Z,26.20
2018-08-25T18:02:46.175Z,26.28
2018-08-25T18:05:15.998Z,26.22
2018-08-25T18:07:45.740Z,26.07
2018-08-25T18:10:15.616Z,25.99
2018-08-25T18:12:45.605Z,25.82
2018-08-25T18:15:15.335Z,25.76
2018-08-25T18:17:45.388Z,25.40
2018-08-25T18:20:15.369Z,25.58
2018-08-25T18:22:45.326Z,25.67
2018-08-25T18:25:15.142Z,25.68
2018-08-25T18:27:44.955Z,25.77
2018-08-25T18:30:14.687Z,25.77
2018-08-25T18:32:44.640Z,25.62
2018-08-25T18:35:14.424Z,25.49
2018-08-25T18:37:44.234Z,25.48
2018-08-25T18:40:14.271Z,25.42
2018-08-25T18:42:44.157Z,25.49
2018-08-25T18:45:14.222Z,25.46
2018-08-25T18:47:44.039Z,25.25
2018-08-25T18:50:13.843Z,25.20
2018-08-25T18:52:43.889Z,24.77
2018-08-25T18:55:13.940Z,24.53
2018-08-25T18:57:43.755Z,24.39
2018-08-25T19:00:13.625Z,24.36
2018-08-25T19:02:43.542Z,24.33
2018-08-25T19:05:13.470Z,24.37
2018-08-25T19:07:43.271Z,24.42
2018-08-25T19:10:13.225Z,24.44
2018-08-25T19:12:43.089Z,24.50
2018-08-25T19:15:12.816Z,24.61
2018-08-25T19:17:42.679Z,24.61
2018-08-25T19:20:12.592Z,24.46
2018-08-25T19:22:42.380Z,24.42
2018-08-25T19:25:12.300Z,24.37
2018-08-25T19:27:42.007Z,24.28
2018-08-25T19:30:11.814Z,24.15
2018-08-25T19:32:41.651Z,24.23
2018-08-25T19:35:11.409Z,24.10
2018-08-25T19:37:41.196Z,24.11
2018-08-25T19:40:11.128Z,24.13
2018-08-25T19:42:41.120Z,24.10
2018-08-25T19:45:11.167Z,24.08
2018-08-25T19:47:41.012Z,24.08
2018-08-25T19:50:10.833Z,24.02
2018-08-25T19:52:40.806Z,23.80
2018-08-25T19:55:10.616Z,23.48
2018-08-25T19:57:40.536Z,23.34
2018-08-25T20:00:10.358Z,22.86
2018-08-25T20:02:40.329Z,23.29
2018-08-25T20:05:10.273Z,23.52
2018-08-25T20:07:40.060Z,23.57
2018-08-25T20:10:09.963Z,23.40
2018-08-25T20:12:40.011Z,23.42
2018-08-25T20:15:10.260Z,23.51
2018-08-25T20:17:40.041Z,23.42
2018-08-25T20:20:10.076Z,23.43
2018-08-25T20:22:40.028Z,23.46
2018-08-25T20:25:10.272Z,23.47
2018-08-25T20:27:40.113Z,23.50
2018-08-25T20:30:10.069Z,23.46
2018-08-25T20:32:40.038Z,23.29
2018-08-25T20:35:10.035Z,23.35
2018-08-25T20:37:39.906Z,23.28
2018-08-25T20:40:10.043Z,23.16
2018-08-25T20:42:40.118Z,23.14
2018-08-25T20:45:10.203Z,22.97
2018-08-25T20:47:40.033Z,22.98
2018-08-25T20:50:09.969Z,22.96
2018-08-25T20:52:40.010Z,22.87
2018-08-25T20:55:09.761Z,22.89
2018-08-25T20:57:39.579Z,22.87
2018-08-25T21:00:09.546Z,22.78
2018-08-25T21:02:40.473Z,22.69
2018-08-25T21:05:10.516Z,22.53
2018-08-25T21:07:41.389Z,22.59
2018-08-25T21:10:12.196Z,22.68
2018-08-25T21:12:43.252Z,22.52
2018-08-25T21:15:13.899Z,22.41
2018-08-25T21:17:44.598Z,22.30
2018-08-25T21:20:15.426Z,22.19
2018-08-25T21:22:46.168Z,22.18
2018-08-25T21:25:16.650Z,22.18
2018-08-25T21:27:47.487Z,22.16
2018-08-25T21:30:18.613Z,22.07
2018-08-25T21:32:49.499Z,21.97
2018-08-25T21:35:20.418Z,21.94
2018-08-25T21:37:50.994Z,21.57
2018-08-25T21:40:21.808Z,21.28
2018-08-25T21:42:51.719Z,21.12
2018-08-25T21:45:22.648Z,21.22
2018-08-25T21:47:54.112Z,21.28
2018-08-25T21:50:25.666Z,20.94
2018-08-25T21:52:57.329Z,21.06
2018-08-25T21:55:28.256Z,21.09
2018-08-25T21:57:58.881Z,20.92
2018-08-25T22:00:29.738Z,21.01
2018-08-25T22:03:00.515Z,20.95
2018-08-25T22:05:31.127Z,21.09
2018-08-25T22:08:01.826Z,21.06
2018-08-25T22:10:32.545Z,20.93
2018-08-25T22:13:02.957Z,21.05
2018-08-25T22:15:33.989Z,21.13
2018-08-25T22:18:04.029Z,20.92
2018-08-25T22:20:34.784Z,20.99
2018-08-25T22:23:05.515Z,21.09
2018-08-25T22:25:36.147Z,20.99
2018-08-25T22:28:06.963Z,20.98
2018-08-25T22:30:37.623Z,21.09
2018-08-25T22:33:08.476Z,21.05
2018-08-25T22:35:39.154Z,20.96
2018-08-25T22:38:10.172Z,20.85
2018-08-25T22:40:40.876Z,20.86
2018-08-25T22:43:11.539Z,20.61
2018-08-25T22:45:42.254Z,20.37
2018-08-25T22:48:12.758Z,20.32
2018-08-25T22:50:43.423Z,20.38
2018-08-25T22:53:14.101Z,20.35
2018-08-25T22:55:45.456Z,20.20
2018-08-25T22:58:16.778Z,20.25
2018-08-25T23:00:47.499Z,20.32
2018-08-25T23:03:18.031Z,20.34
2018-08-25T23:05:48.634Z,20.28
2018-08-25T23:08:19.437Z,20.22
2018-08-25T23:10:50.297Z,20.20
2018-08-25T23:13:20.682Z,20.18
2018-08-25T23:15:51.326Z,20.33
2018-08-25T23:18:21.175Z,20.28
2018-08-25T23:20:52.004Z,19.99
2018-08-25T23:23:22.736Z,19.81
2018-08-25T23:25:54.421Z,20.03
2018-08-25T23:28:24.762Z,20.17
2018-08-25T23:30:55.522Z,19.85
2018-08-25T23:33:25.771Z,19.84
2018-08-25T23:35:57.259Z,20.09
2018-08-25T23:38:28.114Z,20.19
2018-08-25T23:40:58.853Z,19.95
2018-08-25T23:43:29.610Z,19.70
2018-08-25T23:46:00.472Z,19.97
2018-08-25T23:48:31.201Z,20.26
2018-08-25T23:51:02.086Z,20.11
2018-08-25T23:53:33.071Z,20.09
2018-08-25T23:56:04.143Z,19.96
2018-08-25T23:58:35.528Z,19.91
